createdAt,value
2018-09-02T00:00:47.541Z,21.02
2018-09-02T00:01:47.515Z,20.93
2018-09-02T00:02:47.453Z,20.65
2018-09-02T00:03:47.409Z,20.59
2018-09-02T00:04:47.387Z,20.60
2018-09-02T00:05:47.333Z,20.52
2018-09-02T00:06:47.267Z,20.50
2018-09-02T00:07:47.235Z,20.56
2018-09-02T00:08:47.189Z,20.72
2018-09-02T00:09:47.153Z,20.84
2018-09-02T00:10:47.098Z,20.77
2018-09-02T00:11:47.048Z,20.69
2018-09-02T00:12:47.000Z,20.65
2018-09-02T00:13:46.962Z,20.60
2018-09-02T00:14:46.912Z,20.52
2018-09-02T00:15:46.869Z,20.58
2018-09-02T00:16:46.822Z,20.58
2018-09-02T00:17:46.769Z,20.59
2018-09-02T00:18:46.728Z,20.43
2018-09-02T00:19:46.681Z,20.59
2018-09-02T00:20:46.631Z,20.48
2018-09-02T00:21:46.597Z,20.44
2018-09-02T00:22:46.543Z,20.41
2018-09-02T00:23:46.501Z,20.47
2018-09-02T00:24:46.449Z,20.51
2018-09-02T00:25:46.401Z,20.43
2018-09-02T00:26:46.367Z,20.47
2018-09-02T00:27:46.312Z,20.55
2018-09-02T00:28:46.270Z,20.56
2018-09-02T00:29:46.221Z,20.55
2018-09-02T00:30:46.175Z,20.58
2018-09-02T00:31:46.139Z,20.47
2018-09-02T00:32:46.079Z,20.56
2018-09-02T00:33:46.074Z,20.62
2018-09-02T00:34:45.998Z,20.65
2018-09-02T00:35:45.955Z,20.60
2018-09-02T00:36:45.882Z,20.72
2018-09-02T00:37:45.849Z,20.62
2018-09-02T00:38:45.807Z,20.69
2018-09-02T00:39:45.742Z,20.66
2018-09-02T00:40:45.707Z,20.67
2018-09-02T00:41:45.672Z,20.66
2018-09-02T00:42:45.616Z,20.66
2018-09-02T00:43:45.577Z,20.56
2018-09-02T00:44:45.526Z,20.67
2018-09-02T00:45:45.490Z,20.62
2018-09-02T00:46:45.429Z,20.50
2018-09-02T00:47:45.394Z,20.36
2018-09-02T00:48:45.359Z,20.34
2018-09-02T00:49:45.295Z,20.39
2018-09-02T00:50:45.249Z,20.37
2018-09-02T00:51:45.206Z,20.43
2018-09-02T00:52:45.158Z,20.48
2018-09-02T00:53:45.113Z,20.41
2018-09-02T00:54:45.049Z,20.47
2018-09-02T00:55:45.005Z,20.51
2018-09-02T00:56:44.979Z,20.60
2018-09-02T00:57:44.927Z,20.63
2018-09-02T00:58:44.880Z,20.56
2018-09-02T00:59:44.851Z,20.22
2018-09-02T01:00:44.790Z,20.19
2018-09-02T01:01:44.741Z,20.09
2018-09-02T01:02:44.698Z,20.07
2018-09-02T01:03:44.645Z,20.10
2018-09-02T01:04:44.601Z,20.11
2018-09-02T01:05:44.552Z,20.04
2018-09-02T01:06:44.495Z,20.09
2018-09-02T01:07:44.480Z,20.04
2018-09-02T01:08:44.428Z,20.00
2018-09-02T01:09:44.377Z,20.11
2018-09-02T01:10:44.319Z,20.24
2018-09-02T01:11:44.280Z,20.18
2018-09-02T01:12:44.232Z,20.14
2018-09-02T01:13:44.173Z,20.09
2018-09-02T01:14:44.135Z,20.14
2018-09-02T01:15:44.090Z,20.18
2018-09-02T01:16:44.042Z,20.16
2018-09-02T01:17:43.992Z,20.24
2018-09-02T01:18:43.941Z,20.31
2018-09-02T01:19:43.918Z,20.41
2018-09-02T01:20:43.864Z,20.37
2018-09-02T01:21:43.814Z,20.40
2018-09-02T01:22:43.766Z,20.21
2018-09-02T01:23:43.721Z,20.14
2018-09-02T01:24:43.675Z,19.99
2018-09-02T01:25:43.634Z,20.10
2018-09-02T01:26:43.580Z,20.10
2018-09-02T01:27:43.522Z,20.19
2018-09-02T01:28:43.487Z,20.26
2018-09-02T01:29:43.454Z,20.22
2018-09-02T01:30:43.411Z,19.91
2018-09-02T01:31:43.345Z,19.89
2018-09-02T01:32:43.313Z,19.94
2018-09-02T01:33:43.262Z,19.95
2018-09-02T01:34:43.213Z,19.94
2018-09-02T01:35:43.161Z,19.99
2018-09-02T01:36:43.127Z,19.99
2018-09-02T01:37:43.068Z,20.10
2018-09-02T01:38:43.020Z,20.06
2018-09-02T01:39:42.992Z,20.03
2018-09-02T01:40:42.935Z,20.09
2018-09-02T01:41:42.894Z,20.18
2018-09-02T01:42:42.839Z,20.18
2018-09-02T01:43:42.787Z,20.25
2018-09-02T01:44:42.746Z,20.25
2018-09-02T01:45:42.702Z,20.13
2018-09-02T01:46:42.652Z,20.04
2018-09-02T01:47:42.606Z,19.91
2018-09-02T01:48:42.560Z,20.06
2018-09-02T01:49:42.522Z,20.11
2018-09-02T01:50:42.451Z,20.18
2018-09-02T01:51:42.411Z,20.11
2018-09-02T01:52:42.380Z,20.02
2018-09-02T01:53:42.332Z,20.06
2018-09-02T01:54:42.268Z,19.96
2018-09-02T01:55:42.235Z,20.00
2018-09-02T01:56:42.187Z,20.06
2018-09-02T01:57:42.141Z,19.86
2018-09-02T01:58:42.097Z,20.00
2018-09-02T01:59:42.051Z,20.06
2018-09-02T02:00:42.015Z,20.10
2018-09-02T02:01:41.953Z,20.14
2018-09-02T02:02:41.912Z,20.13
2018-09-02T02:03:41.930Z,20.09
2018-09-02T02:04:41.814Z,20.11
2018-09-02T02:05:41.780Z,20.14
2018-09-02T02:06:41.721Z,20.24
2018-09-02T02:07:41.710Z,20.25
2018-09-02T02:08:41.621Z,20.31
2018-09-02T02:09:41.596Z,20.22
2018-09-02T02:10:41.551Z,20.34
2018-09-02T02:11:41.498Z,20.24
2018-09-02T02:12:41.448Z,20.22
2018-09-02T02:13:41.403Z,20.31
2018-09-02T02:14:41.348Z,20.21
2018-09-02T02:15:41.324Z,20.31
2018-09-02T02:16:41.262Z,20.31
2018-09-02T02:17:41.214Z,20.24
2018-09-02T02:18:41.153Z,20.19
2018-09-02T02:19:41.130Z,20.32
2018-09-02T02:20:41.080Z,20.31
2018-09-02T02:21:41.034Z,20.32
2018-09-02T02:22:40.977Z,20.31
2018-09-02T02:23:40.938Z,20.36
2018-09-02T02:24:40.890Z,20.41
2018-09-02T02:25:40.841Z,20.34
2018-09-02T02:26:40.795Z,20.36
2018-09-02T02:27:40.764Z,20.36
2018-09-02T02:28:40.701Z,20.34
2018-09-02T02:29:40.644Z,20.32
2018-09-02T02:30:40.598Z,20.41
2018-09-02T02:31:40.569Z,20.51
2018-09-02T02:32:40.538Z,20.43
2018-09-02T02:33:40.470Z,20.47
2018-09-02T02:34:40.436Z,20.32
2018-09-02T02:35:40.380Z,20.47
2018-09-02T02:36:40.337Z,20.41
2018-09-02T02:37:40.287Z,20.48
2018-09-02T02:38:40.241Z,20.48
2018-09-02T02:39:40.198Z,20.34
2018-09-02T02:40:40.153Z,20.36
2018-09-02T02:41:40.114Z,20.52
2018-09-02T02:42:40.044Z,20.58
2018-09-02T02:43:40.011Z,20.63
2018-09-02T02:44:39.971Z,20.66
2018-09-02T02:45:39.914Z,20.62
2018-09-02T02:46:39.877Z,20.55
2018-09-02T02:47:39.827Z,20.47
2018-09-02T02:48:39.783Z,20.59
2018-09-02T02:49:39.739Z,20.58
2018-09-02T02:50:39.788Z,20.58
2018-09-02T02:51:39.642Z,20.58
2018-09-02T02:52:39.608Z,20.66
2018-09-02T02:53:39.532Z,20.63
2018-09-02T02:54:39.497Z,20.67
2018-09-02T02:55:39.453Z,20.69
2018-09-02T02:56:39.414Z,20.67
2018-09-02T02:57:39.378Z,20.74
2018-09-02T02:58:39.305Z,20.77
2018-09-02T02:59:39.290Z,20.81
2018-09-02T03:00:39.221Z,20.81
2018-09-02T03:01:39.197Z,20.80
2018-09-02T03:02:39.149Z,20.85
2018-09-02T03:03:39.090Z,20.81
2018-09-02T03:04:39.136Z,20.74
2018-09-02T03:05:38.997Z,20.75
2018-09-02T03:06:38.944Z,20.75
2018-09-02T03:07:38.916Z,20.78
2018-09-02T03:08:38.858Z,20.81
2018-09-02T03:09:38.827Z,20.85
2018-09-02T03:10:38.754Z,20.81
2018-09-02T03:11:38.720Z,20.84
2018-09-02T03:12:38.675Z,20.82
2018-09-02T03:13:38.628Z,20.87
2018-09-02T03:14:38.597Z,20.87
2018-09-02T03:15:38.537Z,20.84
2018-09-02T03:16:38.491Z,20.78
2018-09-02T03:17:38.443Z,20.81
2018-09-02T03:18:38.395Z,20.75
2018-09-02T03:19:38.353Z,20.77
2018-09-02T03:20:38.303Z,20.72
2018-09-02T03:21:38.261Z,20.70
2018-09-02T03:22:38.216Z,20.63
2018-09-02T03:23:38.171Z,20.62
2018-09-02T03:24:38.120Z,20.63
2018-09-02T03:25:38.059Z,20.67
2018-09-02T03:26:38.045Z,20.65
2018-09-02T03:27:37.985Z,20.75
2018-09-02T03:28:37.939Z,20.78
2018-09-02T03:29:37.891Z,20.72
2018-09-02T03:30:37.834Z,20.70
2018-09-02T03:31:37.787Z,20.63
2018-09-02T03:32:37.760Z,20.70
2018-09-02T03:33:37.708Z,20.69
2018-09-02T03:34:37.660Z,20.67
2018-09-02T03:35:37.612Z,20.65
2018-09-02T03:36:37.571Z,20.51
2018-09-02T03:37:37.529Z,20.52
2018-09-02T03:38:37.474Z,20.55
2018-09-02T03:39:37.431Z,20.50
2018-09-02T03:40:37.394Z,20.50
2018-09-02T03:41:37.340Z,20.48
2018-09-02T03:42:37.303Z,20.50
2018-09-02T03:43:37.237Z,20.50
2018-09-02T03:44:37.190Z,20.41
2018-09-02T03:45:37.159Z,20.39
2018-09-02T03:46:37.107Z,20.43
2018-09-02T03:47:37.061Z,20.34
2018-09-02T03:48:37.017Z,20.32
2018-09-02T03:49:36.967Z,20.36
2018-09-02T03:50:36.924Z,20.36
2018-09-02T03:51:36.871Z,20.31
2018-09-02T03:52:36.828Z,20.37
2018-09-02T03:53:36.783Z,20.32
2018-09-02T03:54:36.743Z,20.36
2018-09-02T03:55:36.695Z,20.25
2018-09-02T03:56:36.649Z,20.37
2018-09-02T03:57:36.613Z,20.22
2018-09-02T03:58:36.553Z,20.21
2018-09-02T03:59:36.511Z,20.24
2018-09-02T04:00:36.458Z,20.26
2018-09-02T04:01:36.417Z,20.29
2018-09-02T04:02:36.353Z,20.39
2018-09-02T04:03:36.321Z,20.29
2018-09-02T04:04:36.282Z,20.41
2018-09-02T04:05:36.232Z,20.32
2018-09-02T04:06:36.186Z,20.39
2018-09-02T04:07:36.166Z,20.22
2018-09-02T04:08:36.093Z,20.28
2018-09-02T04:09:36.045Z,20.31
2018-09-02T04:10:35.999Z,20.22
2018-09-02T04:11:35.985Z,20.26
2018-09-02T04:12:35.907Z,20.19
2018-09-02T04:13:35.862Z,20.29
2018-09-02T04:14:35.805Z,20.25
2018-09-02T04:15:35.765Z,20.22
2018-09-02T04:16:35.725Z,20.21
2018-09-02T04:17:35.682Z,20.28
2018-09-02T04:18:35.638Z,20.19
2018-09-02T04:19:35.586Z,20.21
2018-09-02T04:20:35.542Z,20.25
2018-09-02T04:21:35.488Z,20.18
2018-09-02T04:22:35.453Z,20.11
2018-09-02T04:23:35.400Z,20.22
2018-09-02T04:24:35.344Z,20.28
2018-09-02T04:25:35.310Z,20.24
2018-09-02T04:26:35.259Z,20.29
2018-09-02T04:27:35.218Z,20.31
2018-09-02T04:28:35.174Z,20.37
2018-09-02T04:29:35.119Z,20.32
2018-09-02T04:30:35.064Z,20.37
2018-09-02T04:31:35.037Z,20.29
2018-09-02T04:32:34.997Z,20.26
2018-09-02T04:33:34.973Z,20.31
2018-09-02T04:34:34.895Z,20.24
2018-09-02T04:35:34.841Z,20.16
2018-09-02T04:36:34.800Z,20.13
2018-09-02T04:37:34.752Z,20.06
2018-09-02T04:38:34.716Z,20.07
2018-09-02T04:39:34.663Z,20.06
2018-09-02T04:40:34.607Z,20.04
2018-09-02T04:41:34.568Z,20.07
2018-09-02T04:42:34.525Z,20.02
2018-09-02T04:43:34.459Z,20.02
2018-09-02T04:44:34.437Z,19.96
2018-09-02T04:45:34.386Z,19.99
2018-09-02T04:46:34.336Z,20.03
2018-09-02T04:47:34.288Z,19.96
2018-09-02T04:48:34.240Z,20.04
2018-09-02T04:49:34.206Z,20.09
2018-09-02T04:50:34.138Z,20.04
2018-09-02T04:51:34.097Z,20.04
2018-09-02T04:52:34.060Z,20.14
2018-09-02T04:53:34.015Z,20.19
2018-09-02T04:54:33.971Z,20.13
2018-09-02T04:55:33.923Z,20.22
2018-09-02T04:56:33.875Z,20.19
2018-09-02T04:57:33.822Z,20.14
2018-09-02T04:58:33.785Z,20.16
2018-09-02T04:59:33.741Z,20.19
2018-09-02T05:00:33.682Z,20.10
2018-09-02T05:01:33.643Z,20.00
2018-09-02T05:02:33.598Z,20.09
2018-09-02T05:03:33.558Z,20.02
2018-09-02T05:04:33.508Z,20.00
2018-09-02T05:05:33.455Z,20.11
2018-09-02T05:06:33.405Z,19.99
2018-09-02T05:07:33.362Z,20.04
2018-09-02T05:08:33.324Z,20.06
2018-09-02T05:09:33.275Z,20.07
2018-09-02T05:10:33.227Z,20.10
2018-09-02T05:11:33.167Z,20.00
2018-09-02T05:12:33.132Z,20.09
2018-09-02T05:13:33.089Z,19.99
2018-09-02T05:14:33.035Z,20.03
2018-09-02T05:15:32.989Z,20.06
2018-09-02T05:16:32.963Z,20.03
2018-09-02T05:17:32.906Z,20.06
2018-09-02T05:18:32.853Z,20.06
2018-09-02T05:19:32.815Z,20.06
2018-09-02T05:20:32.763Z,20.07
2018-09-02T05:21:32.703Z,20.06
2018-09-02T05:22:32.670Z,20.06
2018-09-02T05:23:32.637Z,20.03
2018-09-02T05:24:32.574Z,19.89
2018-09-02T05:25:32.526Z,19.88
2018-09-02T05:26:32.484Z,19.81
2018-09-02T05:27:32.434Z,19.89
2018-09-02T05:28:32.404Z,19.96
2018-09-02T05:29:32.347Z,19.94
2018-09-02T05:30:32.320Z,19.92
2018-09-02T05:31:32.257Z,20.00
2018-09-02T05:32:32.211Z,19.99
2018-09-02T05:33:32.166Z,19.85
2018-09-02T05:34:32.097Z,19.88
2018-09-02T05:35:32.066Z,19.86
2018-09-02T05:36:32.022Z,19.88
2018-09-02T05:37:31.977Z,19.85
2018-09-02T05:38:31.930Z,19.82
2018-09-02T05:39:31.876Z,19.86
2018-09-02T05:40:31.845Z,19.76
2018-09-02T05:41:31.792Z,19.84
2018-09-02T05:42:31.747Z,19.84
2018-09-02T05:43:31.690Z,19.82
2018-09-02T05:44:31.635Z,19.84
2018-09-02T05:45:31.603Z,19.88
2018-09-02T05:46:31.553Z,19.95
2018-09-02T05:47:31.511Z,19.86
2018-09-02T05:48:31.480Z,19.91
2018-09-02T05:49:31.417Z,19.85
2018-09-02T05:50:31.378Z,19.89
2018-09-02T05:51:31.325Z,19.94
2018-09-02T05:52:31.272Z,19.89
2018-09-02T05:53:31.251Z,19.82
2018-09-02T05:54:31.186Z,19.77
2018-09-02T05:55:31.137Z,19.82
2018-09-02T05:56:31.095Z,19.86
2018-09-02T05:57:31.080Z,19.77
2018-09-02T05:58:30.985Z,19.84
2018-09-02T05:59:30.958Z,19.82
2018-09-02T06:00:30.905Z,19.82
2018-09-02T06:01:30.849Z,19.79
2018-09-02T06:02:30.815Z,19.76
2018-09-02T06:03:30.773Z,19.73
2018-09-02T06:04:30.718Z,19.81
2018-09-02T06:05:30.688Z,19.63
2018-09-02T06:06:30.623Z,19.67
2018-09-02T06:07:30.566Z,19.66
2018-09-02T06:08:30.547Z,19.71
2018-09-02T06:09:30.494Z,19.74
2018-09-02T06:10:30.465Z,19.81
2018-09-02T06:11:30.401Z,19.70
2018-09-02T06:12:30.344Z,19.88
2018-09-02T06:13:30.302Z,19.82
2018-09-02T06:14:30.258Z,19.92
2018-09-02T06:15:30.215Z,19.86
2018-09-02T06:16:30.165Z,19.85
2018-09-02T06:17:30.113Z,19.81
2018-09-02T06:18:30.068Z,19.86
2018-09-02T06:19:30.025Z,19.76
2018-09-02T06:20:29.985Z,19.58
2018-09-02T06:21:29.932Z,19.62
2018-09-02T06:22:29.886Z,19.64
2018-09-02T06:23:29.845Z,19.63
2018-09-02T06:24:29.791Z,19.56
2018-09-02T06:25:29.747Z,19.63
2018-09-02T06:26:29.688Z,19.66
2018-09-02T06:27:29.662Z,19.62
2018-09-02T06:28:29.601Z,19.70
2018-09-02T06:29:29.563Z,19.76
2018-09-02T06:30:29.510Z,19.64
2018-09-02T06:31:29.469Z,19.67
2018-09-02T06:32:29.420Z,19.73
2018-09-02T06:33:29.377Z,19.67
2018-09-02T06:34:29.313Z,19.69
2018-09-02T06:35:29.410Z,19.71
2018-09-02T06:36:29.290Z,19.73
2018-09-02T06:37:29.190Z,19.73
2018-09-02T06:38:29.151Z,19.67
2018-09-02T06:39:29.163Z,19.63
2018-09-02T06:40:29.052Z,19.63
2018-09-02T06:41:28.988Z,19.64
2018-09-02T06:42:28.960Z,19.62
2018-09-02T06:43:28.908Z,19.52
2018-09-02T06:44:28.879Z,19.58
2018-09-02T06:45:28.813Z,19.56
2018-09-02T06:46:28.772Z,19.59
2018-09-02T06:47:28.727Z,19.55
2018-09-02T06:48:28.677Z,19.47
2018-09-02T06:49:28.627Z,19.45
2018-09-02T06:50:28.574Z,19.58
2018-09-02T06:51:28.540Z,19.52
2018-09-02T06:52:28.482Z,19.55
2018-09-02T06:53:28.446Z,19.48
2018-09-02T06:54:28.406Z,19.59
2018-09-02T06:55:28.363Z,19.66
2018-09-02T06:56:28.315Z,19.67
2018-09-02T06:57:28.266Z,19.59
2018-09-02T06:58:28.280Z,19.62
2018-09-02T06:59:28.167Z,19.67
2018-09-02T07:00:28.128Z,19.62
2018-09-02T07:01:28.081Z,19.62
2018-09-02T07:02:28.021Z,19.59
2018-09-02T07:03:27.994Z,19.52
2018-09-02T07:04:27.937Z,19.49
2018-09-02T07:05:27.877Z,19.49
2018-09-02T07:06:27.915Z,19.52
2018-09-02T07:07:27.982Z,19.62
2018-09-02T07:08:27.745Z,19.64
2018-09-02T07:09:27.705Z,19.62
2018-09-02T07:10:27.656Z,19.58
2018-09-02T07:11:27.608Z,19.59
2018-09-02T07:12:27.566Z,19.52
2018-09-02T07:13:27.521Z,19.48
2018-09-02T07:14:27.511Z,19.58
2018-09-02T07:15:27.435Z,19.45
2018-09-02T07:16:27.375Z,19.52
2018-09-02T07:17:27.334Z,19.58
2018-09-02T07:18:27.288Z,19.64
2018-09-02T07:19:27.237Z,19.62
2018-09-02T07:20:27.193Z,19.59
2018-09-02T07:21:27.142Z,19.69
2018-09-02T07:22:27.109Z,19.67
2018-09-02T07:23:27.052Z,19.76
2018-09-02T07:24:27.005Z,19.74
2018-09-02T07:25:26.961Z,19.64
2018-09-02T07:26:26.924Z,19.67
2018-09-02T07:27:26.878Z,19.56
2018-09-02T07:28:26.827Z,19.54
2018-09-02T07:29:26.770Z,19.52
2018-09-02T07:30:26.724Z,19.54
2018-09-02T07:31:26.683Z,19.59
2018-09-02T07:32:26.618Z,19.52
2018-09-02T07:33:26.588Z,19.49
2018-09-02T07:34:26.542Z,19.52
2018-09-02T07:35:26.488Z,19.51
2018-09-02T07:36:26.458Z,19.51
2018-09-02T07:37:26.400Z,19.54
2018-09-02T07:38:26.356Z,19.58
2018-09-02T07:39:26.317Z,19.64
2018-09-02T07:40:26.260Z,19.66
2018-09-02T07:41:26.212Z,19.62
2018-09-02T07:42:26.165Z,19.63
2018-09-02T07:43:26.122Z,19.66
2018-09-02T07:44:26.077Z,19.51
2018-09-02T07:45:26.027Z,19.62
2018-09-02T07:46:25.977Z,19.59
2018-09-02T07:47:25.944Z,19.52
2018-09-02T07:48:25.889Z,19.54
2018-09-02T07:49:25.848Z,19.49
2018-09-02T07:50:25.797Z,19.44
2018-09-02T07:51:25.750Z,19.41
2018-09-02T07:52:25.705Z,19.52
2018-09-02T07:53:25.658Z,19.52
2018-09-02T07:54:25.649Z,19.49
2018-09-02T07:55:25.564Z,19.67
2018-09-02T07:56:25.514Z,19.55
2018-09-02T07:57:25.471Z,19.56
2018-09-02T07:58:25.419Z,19.58
2018-09-02T07:59:25.375Z,19.69
2018-09-02T08:00:25.343Z,19.62
2018-09-02T08:01:25.279Z,19.52
2018-09-02T08:02:25.237Z,19.56
2018-09-02T08:03:25.186Z,19.59
2018-09-02T08:04:25.149Z,19.51
2018-09-02T08:05:25.111Z,19.45
2018-09-02T08:06:25.037Z,19.52
2018-09-02T08:07:25.005Z,19.52
2018-09-02T08:08:24.945Z,19.41
2018-09-02T08:09:24.913Z,19.47
2018-09-02T08:10:24.875Z,19.40
2018-09-02T08:11:24.826Z,19.45
2018-09-02T08:12:24.847Z,19.41
2018-09-02T08:13:24.726Z,19.34
2018-09-02T08:14:24.677Z,19.34
2018-09-02T08:15:24.638Z,19.33
2018-09-02T08:16:24.583Z,19.27
2018-09-02T08:17:24.535Z,19.31
2018-09-02T08:18:24.502Z,19.36
2018-09-02T08:19:24.444Z,19.36
2018-09-02T08:20:24.394Z,19.40
2018-09-02T08:21:24.342Z,19.44
2018-09-02T08:22:24.309Z,19.36
2018-09-02T08:23:24.261Z,19.24
2018-09-02T08:24:24.214Z,19.30
2018-09-02T08:25:24.168Z,19.19
2018-09-02T08:26:24.127Z,19.29
2018-09-02T08:27:24.070Z,19.33
2018-09-02T08:28:24.022Z,19.19
2018-09-02T08:29:23.981Z,19.33
2018-09-02T08:30:23.930Z,19.24
2018-09-02T08:31:23.873Z,19.21
2018-09-02T08:32:23.826Z,19.19
2018-09-02T08:33:23.797Z,19.07
2018-09-02T08:34:23.753Z,19.19
2018-09-02T08:35:23.703Z,19.16
2018-09-02T08:36:23.657Z,19.22
2018-09-02T08:37:23.601Z,19.11
2018-09-02T08:38:23.565Z,19.21
2018-09-02T08:39:23.532Z,19.16
2018-09-02T08:40:23.455Z,19.14
2018-09-02T08:41:23.421Z,19.04
2018-09-02T08:42:23.380Z,19.08
2018-09-02T08:43:23.326Z,19.08
2018-09-02T08:44:23.301Z,19.11
2018-09-02T08:45:23.233Z,19.00
2018-09-02T08:46:23.197Z,18.99
2018-09-02T08:47:23.136Z,18.98
2018-09-02T08:48:23.098Z,19.04
2018-09-02T08:49:23.079Z,19.09
2018-09-02T08:50:23.002Z,19.15
2018-09-02T08:51:22.961Z,19.11
2018-09-02T08:52:22.907Z,19.12
2018-09-02T08:53:22.880Z,19.16
2018-09-02T08:54:22.827Z,19.16
2018-09-02T08:55:22.763Z,19.08
2018-09-02T08:56:22.719Z,19.09
2018-09-02T08:57:22.662Z,18.89
2018-09-02T08:58:23.163Z,18.98
2018-09-02T08:59:22.578Z,18.92
2018-09-02T09:00:22.546Z,18.90
2018-09-02T09:01:22.473Z,18.93
2018-09-02T09:02:22.436Z,18.81
2018-09-02T09:03:22.399Z,18.90
2018-09-02T09:04:22.345Z,18.86
2018-09-02T09:05:22.287Z,18.89
2018-09-02T09:06:22.252Z,18.83
2018-09-02T09:07:22.742Z,18.84
2018-09-02T09:08:22.284Z,18.98
2018-09-02T09:09:22.455Z,18.93
2018-09-02T09:10:22.067Z,19.09
2018-09-02T09:11:22.026Z,19.11
2018-09-02T09:12:21.971Z,19.21
2018-09-02T09:13:21.925Z,19.27
2018-09-02T09:14:21.876Z,19.24
2018-09-02T09:15:21.828Z,19.18
2018-09-02T09:16:21.848Z,19.26
2018-09-02T09:17:21.752Z,19.24
2018-09-02T09:18:21.694Z,19.21
2018-09-02T09:19:21.648Z,19.21
2018-09-02T09:20:21.600Z,19.22
2018-09-02T09:21:21.551Z,19.24
2018-09-02T09:22:21.507Z,19.11
2018-09-02T09:23:21.458Z,19.12
2018-09-02T09:24:21.414Z,19.16
2018-09-02T09:25:21.363Z,19.24
2018-09-02T09:26:21.321Z,19.29
2018-09-02T09:27:21.272Z,19.24
2018-09-02T09:28:21.221Z,19.21
2018-09-02T09:29:21.175Z,19.30
2018-09-02T09:30:21.118Z,19.29
2018-09-02T09:31:21.073Z,19.29
2018-09-02T09:32:21.100Z,19.18
2018-09-02T09:33:20.988Z,19.21
2018-09-02T09:34:20.956Z,19.18
2018-09-02T09:35:20.898Z,19.12
2018-09-02T09:36:20.854Z,19.04
2018-09-02T09:37:20.792Z,19.09
2018-09-02T09:38:20.754Z,19.07
2018-09-02T09:39:20.716Z,19.16
2018-09-02T09:40:20.670Z,19.12
2018-09-02T09:41:20.621Z,19.24
2018-09-02T09:42:20.570Z,19.21
2018-09-02T09:43:20.528Z,19.21
2018-09-02T09:44:20.468Z,19.18
2018-09-02T09:45:20.443Z,19.09
2018-09-02T09:46:20.373Z,19.24
2018-09-02T09:47:20.342Z,19.19
2018-09-02T09:48:20.296Z,19.21
2018-09-02T09:49:20.251Z,19.18
2018-09-02T09:50:20.186Z,19.19
2018-09-02T09:51:20.158Z,19.18
2018-09-02T09:52:20.105Z,19.30
2018-09-02T09:53:20.075Z,19.31
2018-09-02T09:54:20.017Z,19.29
2018-09-02T09:55:19.959Z,19.40
2018-09-02T09:56:19.924Z,19.41
2018-09-02T09:57:19.875Z,19.44
2018-09-02T09:58:19.832Z,19.48
2018-09-02T09:59:19.795Z,19.51
2018-09-02T10:00:19.755Z,19.58
2018-09-02T10:01:19.692Z,19.63
2018-09-02T10:02:19.648Z,19.59
2018-09-02T10:03:19.607Z,19.63
2018-09-02T10:04:19.562Z,19.56
2018-09-02T10:05:19.513Z,19.54
2018-09-02T10:06:19.464Z,19.55
2018-09-02T10:07:19.404Z,19.62
2018-09-02T10:08:19.365Z,19.62
2018-09-02T10:09:19.318Z,19.77
2018-09-02T10:10:19.301Z,19.85
2018-09-02T10:11:19.234Z,19.99
2018-09-02T10:12:19.191Z,20.06
2018-09-02T10:13:19.142Z,20.06
2018-09-02T10:14:19.099Z,20.14
2018-09-02T10:15:19.054Z,20.11
2018-09-02T10:16:18.994Z,20.19
2018-09-02T10:17:19.041Z,20.13
2018-09-02T10:18:19.014Z,20.19
2018-09-02T10:19:18.874Z,20.10
2018-09-02T10:20:18.822Z,20.16
2018-09-02T10:21:18.770Z,20.18
2018-09-02T10:22:18.736Z,20.21
2018-09-02T10:23:18.693Z,20.31
2018-09-02T10:24:18.644Z,20.52
2018-09-02T10:25:18.605Z,20.65
2018-09-02T10:26:18.564Z,21.00
2018-09-02T10:27:18.529Z,21.11
2018-09-02T10:28:18.473Z,21.46
2018-09-02T10:29:18.420Z,21.48
2018-09-02T10:30:18.384Z,21.69
2018-09-02T10:31:18.339Z,21.73
2018-09-02T10:32:18.298Z,22.06
2018-09-02T10:33:18.325Z,22.17
2018-09-02T10:34:18.226Z,22.43
2018-09-02T10:35:18.176Z,22.66
2018-09-02T10:36:18.131Z,22.78
2018-09-02T10:37:18.096Z,22.96
2018-09-02T10:38:18.054Z,23.08
2018-09-02T10:39:18.021Z,23.28
2018-09-02T10:40:17.962Z,23.39
2018-09-02T10:41:18.127Z,23.56
2018-09-02T10:42:17.900Z,23.68
2018-09-02T10:43:17.861Z,23.80
2018-09-02T10:44:17.823Z,23.87
2018-09-02T10:45:17.781Z,23.88
2018-09-02T10:46:17.749Z,24.13
2018-09-02T10:47:17.705Z,24.20
2018-09-02T10:48:17.669Z,24.23
2018-09-02T10:49:17.632Z,24.29
2018-09-02T10:50:17.598Z,24.35
2018-09-02T10:51:17.568Z,24.32
2018-09-02T10:52:17.542Z,24.57
2018-09-02T10:53:17.490Z,24.53
2018-09-02T10:54:17.451Z,24.45
2018-09-02T10:55:17.423Z,24.53
2018-09-02T10:56:17.366Z,24.51
2018-09-02T10:57:17.342Z,24.53
2018-09-02T10:58:17.286Z,24.54
2018-09-02T10:59:17.262Z,24.45
2018-09-02T11:00:17.225Z,24.40
2018-09-02T11:01:17.188Z,24.24
2018-09-02T11:02:17.153Z,24.14
2018-09-02T11:03:17.092Z,23.96
2018-09-02T11:04:17.070Z,23.96
2018-09-02T11:05:17.028Z,23.88
2018-09-02T11:06:16.999Z,23.84
2018-09-02T11:07:16.939Z,23.84
2018-09-02T11:08:16.908Z,23.84
2018-09-02T11:09:16.863Z,23.84
2018-09-02T11:10:16.820Z,23.81
2018-09-02T11:11:16.767Z,23.84
2018-09-02T11:12:16.766Z,23.76
2018-09-02T11:13:16.736Z,23.88
2018-09-02T11:14:16.657Z,23.76
2018-09-02T11:15:16.613Z,23.69
2018-09-02T11:16:16.595Z,23.69
2018-09-02T11:17:16.532Z,23.74
2018-09-02T11:18:16.488Z,23.74
2018-09-02T11:19:16.444Z,23.91
2018-09-02T11:20:16.430Z,23.83
2018-09-02T11:21:16.363Z,23.81
2018-09-02T11:22:16.341Z,23.83
2018-09-02T11:23:16.277Z,23.80
2018-09-02T11:24:16.224Z,23.77
2018-09-02T11:25:16.201Z,23.77
2018-09-02T11:26:16.129Z,23.81
2018-09-02T11:27:16.106Z,23.80
2018-09-02T11:28:16.121Z,23.84
2018-09-02T11:29:16.012Z,23.86
2018-09-02T11:30:15.974Z,23.87
2018-09-02T11:31:15.930Z,23.93
2018-09-02T11:32:15.870Z,23.93
2018-09-02T11:33:15.847Z,23.91
2018-09-02T11:34:15.800Z,23.93
2018-09-02T11:35:15.759Z,23.86
2018-09-02T11:36:15.721Z,23.80
2018-09-02T11:37:15.661Z,23.91
2018-09-02T11:38:15.625Z,23.95
2018-09-02T11:39:15.579Z,23.87
2018-09-02T11:40:15.610Z,23.92
2018-09-02T11:41:15.499Z,24.03
2018-09-02T11:42:15.457Z,24.03
2018-09-02T11:43:15.408Z,24.08
2018-09-02T11:44:15.370Z,24.11
2018-09-02T11:45:15.415Z,24.20
2018-09-02T11:46:15.290Z,24.18
2018-09-02T11:47:15.234Z,24.20
2018-09-02T11:48:15.198Z,24.11
2018-09-02T11:49:15.142Z,24.02
2018-09-02T11:50:15.109Z,24.03
2018-09-02T11:51:15.062Z,23.99
2018-09-02T11:52:15.025Z,24.05
2018-09-02T11:53:14.988Z,24.05
2018-09-02T11:54:14.948Z,24.06
2018-09-02T11:55:14.886Z,24.06
2018-09-02T11:56:14.854Z,24.05
2018-09-02T11:57:14.803Z,24.08
2018-09-02T11:58:14.770Z,24.13
2018-09-02T11:59:14.717Z,24.10
2018-09-02T12:00:14.690Z,24.14
2018-09-02T12:01:14.640Z,24.08
2018-09-02T12:02:14.593Z,24.08
2018-09-02T12:03:14.551Z,24.03
2018-09-02T12:04:14.498Z,24.14
2018-09-02T12:05:14.461Z,24.14
2018-09-02T12:06:14.417Z,24.08
2018-09-02T12:07:14.367Z,24.08
2018-09-02T12:08:14.329Z,24.06
2018-09-02T12:09:14.272Z,24.16
2018-09-02T12:10:14.253Z,24.24
2018-09-02T12:11:14.185Z,24.29
2018-09-02T12:12:14.149Z,24.32
2018-09-02T12:13:14.097Z,24.32
2018-09-02T12:14:14.072Z,24.43
2018-09-02T12:15:14.032Z,24.38
2018-09-02T12:16:13.986Z,24.35
2018-09-02T12:17:13.938Z,24.40
2018-09-02T12:18:13.907Z,24.45
2018-09-02T12:19:14.385Z,24.50
2018-09-02T12:20:13.804Z,24.42
2018-09-02T12:21:13.777Z,24.55
2018-09-02T12:22:13.729Z,24.58
2018-09-02T12:23:13.691Z,24.60
2018-09-02T12:24:13.637Z,24.55
2018-09-02T12:25:13.593Z,24.69
2018-09-02T12:26:13.548Z,24.73
2018-09-02T12:27:13.504Z,24.80
2018-09-02T12:28:13.476Z,24.88
2018-09-02T12:29:13.416Z,24.88
2018-09-02T12:30:13.373Z,24.95
2018-09-02T12:31:13.342Z,25.04
2018-09-02T12:32:13.290Z,25.03
2018-09-02T12:33:13.247Z,24.99
2018-09-02T12:34:13.208Z,25.21
2018-09-02T12:35:13.161Z,25.29
2018-09-02T12:36:13.117Z,25.16
2018-09-02T12:37:13.074Z,25.17
2018-09-02T12:38:13.032Z,25.14
2018-09-02T12:39:12.987Z,25.22
2018-09-02T12:40:12.940Z,25.33
2018-09-02T12:41:12.906Z,25.32
2018-09-02T12:42:12.915Z,25.33
2018-09-02T12:43:12.822Z,25.44
2018-09-02T12:44:13.300Z,25.48
2018-09-02T12:45:12.732Z,25.55
2018-09-02T12:46:12.698Z,25.53
2018-09-02T12:47:12.651Z,25.60
2018-09-02T12:48:12.668Z,25.54
2018-09-02T12:49:12.572Z,25.59
2018-09-02T12:50:12.524Z,25.58
2018-09-02T12:51:12.476Z,25.50
2018-09-02T12:52:12.426Z,25.48